createdAt,value
2022-12-16T00:01:47.911Z,95.30
2022-12-16T00:04:33.271Z,95.40
2022-12-16T00:07:22.461Z,95.70
2022-12-16T00:10:10.639Z,95.70
2022-12-16T00:12:56.291Z,95.60
2022-12-16T00:15:42.187Z,95.60
2022-12-16T00:18:27.947Z,95.40
2022-12-16T00:21:21.599Z,95.50
2022-12-16T00:24:07.281Z,95.40
2022-12-16T00:26:54.003Z,95.40
2022-12-16T00:29:40.399Z,95.40
2022-12-16T00:32:26.170Z,95.50
2022-12-16T00:35:14.482Z,95.90
2022-12-16T00:38:00.391Z,95.80
2022-12-16T00:40:46.258Z,96.10
2022-12-16T00:43:32.229Z,96.10
2022-12-16T00:46:18.139Z,96.20
2022-12-16T00:49:03.738Z,96.20
2022-12-16T00:51:52.185Z,96.20
2022-12-16T00:54:40.555Z,96.10
2022-12-16T00:57:26.867Z,95.80
2022-12-16T01:00:14.792Z,95.70
2022-12-16T01:03:00.201Z,95.60
2022-12-16T01:05:45.579Z,95.50
2022-12-16T01:08:31.069Z,95.60
2022-12-16T01:11:22.309Z,95.70
2022-12-16T01:14:07.837Z,95.60
2022-12-16T01:16:57.012Z,95.50
2022-12-16T01:19:42.241Z,95.40
2022-12-16T01:22:31.562Z,95.50
2022-12-16T01:25:17.719Z,95.50
2022-12-16T01:28:02.922Z,95.60
2022-12-16T01:30:50.866Z,95.80
2022-12-16T01:33:39.762Z,95.50
2022-12-16T01:36:26.434Z,95.50
2022-12-16T01:39:12.196Z,95.50
2022-12-16T01:41:57.594Z,95.50
2022-12-16T01:44:44.754Z,95.40
2022-12-16T01:47:35.649Z,95.50
2022-12-16T01:50:21.718Z,95.50
2022-12-16T01:53:07.122Z,95.50
2022-12-16T01:55:55.367Z,95.60
2022-12-16T01:58:42.364Z,95.50
2022-12-16T02:01:27.951Z,95.50
2022-12-16T02:04:13.918Z,95.50
2022-12-16T02:07:01.349Z,95.40
2022-12-16T02:09:46.825Z,95.50
2022-12-16T02:12:42.914Z,95.40
2022-12-16T02:15:46.039Z,95.60
2022-12-16T02:18:40.610Z,95.50
2022-12-16T02:21:54.858Z,95.50
2022-12-16T02:25:14.883Z,95.80
2022-12-16T02:28:22.518Z,95.80
2022-12-16T02:31:27.126Z,95.60
2022-12-16T02:34:41.694Z,95.60
2022-12-16T02:37:53.046Z,95.70
2022-12-16T02:40:50.229Z,95.50
2022-12-16T02:43:55.566Z,95.30
2022-12-16T02:46:53.149Z,95.20
2022-12-16T02:49:47.083Z,95.10
2022-12-16T02:52:34.647Z,95.10
2022-12-16T02:55:21.906Z,95.40
2022-12-16T02:58:07.135Z,95.10
2022-12-16T03:01:14.572Z,95.00
2022-12-16T03:04:12.109Z,95.00
2022-12-16T03:06:59.134Z,95.00
2022-12-16T03:09:49.798Z,95.00
2022-12-16T03:12:36.657Z,95.00
2022-12-16T03:15:25.578Z,95.00
2022-12-16T03:18:13.858Z,94.90
2022-12-16T03:21:03.070Z,94.90
2022-12-16T03:24:10.722Z,94.90
2022-12-16T03:27:13.649Z,94.90
2022-12-16T03:30:06.625Z,94.80
2022-12-16T03:33:03.110Z,94.90
2022-12-16T03:35:57.006Z,94.90
2022-12-16T03:38:45.530Z,94.90
2022-12-16T03:41:32.754Z,94.80
2022-12-16T03:44:21.434Z,94.80
2022-12-16T03:47:07.171Z,94.70
2022-12-16T03:49:52.514Z,94.70
2022-12-16T03:52:38.099Z,94.70
2022-12-16T03:55:23.875Z,94.70
2022-12-16T03:58:09.068Z,94.70
2022-12-16T04:00:54.547Z,94.70
2022-12-16T04:03:40.985Z,94.60
2022-12-16T04:06:28.173Z,94.60
2022-12-16T04:09:13.642Z,94.60
2022-12-16T04:12:17.544Z,94.60
2022-12-16T04:15:21.869Z,94.70
2022-12-16T04:18:35.377Z,94.60
2022-12-16T04:21:39.094Z,94.70
2022-12-16T04:24:27.510Z,94.70
2022-12-16T04:27:24.842Z,94.70
2022-12-16T04:30:19.484Z,94.60
2022-12-16T04:33:28.283Z,94.60
2022-12-16T04:36:35.508Z,94.50
2022-12-16T04:39:39.274Z,94.50
2022-12-16T04:42:43.140Z,94.50
2022-12-16T04:45:46.905Z,94.30
2022-12-16T04:48:50.665Z,94.40
2022-12-16T04:51:54.711Z,94.20
2022-12-16T04:54:58.519Z,94.20
2022-12-16T04:58:14.349Z,94.10
2022-12-16T05:01:18.449Z,94.10
2022-12-16T05:04:22.479Z,94.00
2022-12-16T05:07:52.065Z,93.90
2022-12-16T05:10:55.733Z,94.00
2022-12-16T05:14:03.077Z,94.00
2022-12-16T05:17:06.928Z,94.00
2022-12-16T05:20:10.868Z,94.00
2022-12-16T05:23:15.667Z,94.00
2022-12-16T05:26:23.134Z,94.00
2022-12-16T05:29:26.795Z,94.10
2022-12-16T05:32:30.841Z,94.10
2022-12-16T05:35:34.789Z,94.20
2022-12-16T05:38:46.036Z,94.20
2022-12-16T05:41:50.321Z,94.20
2022-12-16T05:44:53.814Z,94.20
2022-12-16T05:47:58.855Z,94.20
2022-12-16T05:51:02.493Z,94.30
2022-12-16T05:54:06.341Z,94.20
2022-12-16T05:57:10.447Z,94.20
2022-12-16T06:00:14.414Z,94.20
2022-12-16T06:03:18.594Z,94.20
2022-12-16T06:06:22.966Z,94.20
2022-12-16T06:09:26.998Z,94.20
2022-12-16T06:12:33.604Z,94.20
2022-12-16T06:15:37.527Z,94.20
2022-12-16T06:18:41.605Z,94.30
2022-12-16T06:21:46.062Z,94.20
2022-12-16T06:24:49.901Z,94.20
2022-12-16T06:27:54.855Z,94.30
2022-12-16T06:30:59.015Z,94.40
2022-12-16T06:34:02.651Z,94.40
2022-12-16T06:37:06.581Z,94.40
2022-12-16T06:40:10.347Z,94.40
2022-12-16T06:43:14.043Z,94.50
2022-12-16T06:46:17.925Z,94.70
2022-12-16T06:49:27.939Z,94.70
2022-12-16T06:52:31.970Z,94.80
2022-12-16T06:55:36.315Z,94.80
2022-12-16T06:58:40.207Z,94.70
2022-12-16T07:01:44.240Z,94.70
2022-12-16T07:04:48.370Z,94.70
2022-12-16T07:07:52.536Z,94.60
2022-12-16T07:11:08.993Z,94.50
2022-12-16T07:14:17.614Z,94.70
2022-12-16T07:17:25.101Z,94.40
2022-12-16T07:20:29.679Z,94.30
2022-12-16T07:23:33.674Z,94.00
2022-12-16T07:26:37.870Z,93.90
2022-12-16T07:29:41.792Z,93.80
2022-12-16T07:32:45.435Z,93.90
2022-12-16T07:35:49.070Z,93.60
2022-12-16T07:38:52.937Z,93.40
2022-12-16T07:41:57.161Z,93.40
2022-12-16T07:45:01.020Z,93.50
2022-12-16T07:48:07.258Z,93.50
2022-12-16T07:51:15.481Z,93.50
2022-12-16T07:54:22.807Z,93.90
2022-12-16T07:57:26.775Z,93.70
2022-12-16T08:00:35.150Z,93.70
2022-12-16T08:03:39.279Z,93.80
2022-12-16T08:06:46.078Z,93.90
2022-12-16T08:09:49.687Z,93.90
2022-12-16T08:12:53.658Z,94.00
2022-12-16T08:15:57.873Z,93.90
2022-12-16T08:19:06.204Z,94.00
2022-12-16T08:22:17.852Z,94.00
2022-12-16T08:25:22.550Z,94.00
2022-12-16T08:28:26.405Z,94.00
2022-12-16T08:31:34.124Z,94.00
2022-12-16T08:34:41.714Z,93.80
2022-12-16T08:37:48.031Z,93.80
2022-12-16T08:40:51.843Z,93.70
2022-12-16T08:43:55.519Z,93.80
2022-12-16T08:46:59.282Z,93.80
2022-12-16T08:50:02.936Z,93.90
2022-12-16T08:53:06.685Z,93.90
2022-12-16T08:56:10.634Z,93.90
2022-12-16T08:59:14.493Z,93.90
2022-12-16T09:02:19.224Z,94.00
2022-12-16T09:05:23.585Z,94.00
2022-12-16T09:08:27.397Z,93.90
2022-12-16T09:11:31.522Z,94.00
2022-12-16T09:14:35.322Z,93.90
2022-12-16T09:17:39.281Z,93.80
2022-12-16T09:24:00.747Z,93.80
2022-12-16T09:27:04.424Z,93.90
2022-12-16T09:30:08.085Z,94.00
2022-12-16T09:33:12.926Z,94.30
2022-12-16T09:36:17.040Z,94.00
2022-12-16T09:39:20.894Z,93.90
2022-12-16T09:42:47.302Z,94.00
2022-12-16T09:46:09.466Z,93.90
2022-12-16T09:49:36.439Z,93.80
2022-12-16T09:52:41.285Z,93.80
2022-12-16T09:55:55.444Z,93.80
2022-12-16T09:59:30.866Z,93.70
2022-12-16T10:02:37.266Z,93.80
2022-12-16T10:05:51.408Z,93.80
2022-12-16T10:09:02.500Z,93.90
2022-12-16T10:12:26.794Z,93.90
2022-12-16T10:15:49.869Z,93.80
2022-12-16T10:19:00.607Z,93.80
2022-12-16T10:22:22.045Z,93.70
2022-12-16T10:25:36.925Z,93.70
2022-12-16T10:29:04.047Z,93.70
2022-12-16T10:32:07.820Z,93.70
2022-12-16T10:35:13.960Z,93.70
2022-12-16T10:38:18.505Z,93.70
2022-12-16T10:41:23.627Z,93.70
2022-12-16T10:44:50.833Z,93.70
2022-12-16T10:47:56.558Z,93.70
2022-12-16T10:51:00.518Z,93.70
2022-12-16T10:54:09.802Z,93.60
2022-12-16T10:57:23.570Z,93.70
2022-12-16T11:01:10.353Z,93.80
2022-12-16T11:04:24.905Z,94.00
2022-12-16T11:07:46.277Z,94.50
2022-12-16T11:10:56.006Z,94.50
2022-12-16T11:14:00.002Z,94.30
2022-12-16T11:17:28.790Z,93.30
2022-12-16T11:20:35.294Z,92.40
2022-12-16T11:23:44.486Z,92.80
2022-12-16T11:26:51.043Z,92.30
2022-12-16T11:30:17.582Z,92.50
2022-12-16T11:33:40.307Z,92.40
2022-12-16T11:36:45.234Z,92.10
2022-12-16T11:39:51.233Z,91.30
2022-12-16T11:43:06.363Z,91.40
2022-12-16T11:46:16.934Z,89.20
2022-12-16T11:49:26.977Z,82.00
2022-12-16T11:52:37.223Z,80.20
2022-12-16T11:59:17.716Z,76.90
2022-12-16T12:02:24.259Z,72.90
2022-12-16T12:05:34.862Z,68.50
2022-12-16T12:09:00.666Z,65.20
2022-12-16T12:12:17.640Z,59.90
2022-12-16T12:15:35.525Z,56.00
2022-12-16T12:19:09.131Z,54.40
2022-12-16T12:22:26.173Z,49.50
2022-12-16T12:26:04.906Z,47.50
2022-12-16T12:29:26.170Z,46.90
2022-12-16T12:32:44.789Z,42.60
2022-12-16T12:36:15.146Z,40.80
2022-12-16T12:40:01.534Z,39.80
2022-12-16T12:43:13.327Z,39.00
2022-12-16T12:46:29.731Z,38.80
2022-12-16T12:50:02.629Z,36.70
2022-12-16T12:53:48.242Z,36.30
2022-12-16T12:57:07.413Z,35.30
2022-12-16T13:00:23.546Z,34.00
2022-12-16T13:04:16.190Z,33.60
2022-12-16T13:07:21.105Z,32.40
2022-12-16T13:10:41.475Z,32.10
2022-12-16T13:13:47.959Z,32.30
2022-12-16T13:17:21.700Z,33.20
2022-12-16T13:20:51.523Z,32.10
2022-12-16T13:24:02.080Z,30.20
2022-12-16T13:27:19.875Z,30.70
2022-12-16T13:30:43.183Z,30.00
2022-12-16T13:33:49.940Z,30.70
2022-12-16T13:36:54.491Z,30.70
2022-12-16T13:40:01.475Z,31.30
2022-12-16T13:43:09.813Z,31.40
2022-12-16T13:46:21.197Z,30.70
2022-12-16T13:49:59.434Z,29.80
2022-12-16T13:53:19.209Z,29.50
2022-12-16T13:56:26.571Z,28.90
2022-12-16T13:59:40.315Z,29.40
2022-12-16T14:02:51.027Z,29.80
2022-12-16T14:06:01.824Z,29.80
2022-12-16T14:09:08.141Z,29.30
2022-12-16T14:12:23.531Z,28.70
2022-12-16T14:15:58.977Z,28.70
2022-12-16T14:19:45.322Z,29.20
2022-12-16T14:23:09.273Z,29.60
2022-12-16T14:26:17.998Z,29.20
2022-12-16T14:29:31.792Z,29.50
2022-12-16T14:32:39.156Z,29.10
2022-12-16T14:35:46.371Z,29.50
2022-12-16T14:38:50.282Z,29.90
2022-12-16T14:41:54.851Z,30.10
2022-12-16T14:44:59.225Z,30.00
2022-12-16T14:48:03.043Z,29.90
2022-12-16T14:51:17.424Z,30.90
2022-12-16T14:54:43.139Z,31.00
2022-12-16T14:57:49.407Z,31.50
2022-12-16T15:00:54.294Z,31.70
2022-12-16T15:04:00.877Z,32.50
2022-12-16T15:07:07.972Z,33.00
2022-12-16T15:10:13.349Z,33.60
2022-12-16T15:13:20.257Z,34.60
2022-12-16T15:16:25.148Z,36.30
2022-12-16T15:19:37.680Z,38.40
2022-12-16T15:22:41.478Z,40.70
2022-12-16T15:25:46.874Z,42.20
2022-12-16T15:28:58.363Z,44.00
2022-12-16T15:32:03.696Z,45.50
2022-12-16T15:35:08.514Z,46.80
2022-12-16T15:38:12.299Z,47.80
2022-12-16T15:41:16.169Z,49.10
2022-12-16T15:44:20.285Z,50.10
2022-12-16T15:47:37.738Z,51.00
2022-12-16T15:50:45.627Z,52.00
2022-12-16T15:53:55.299Z,52.90
2022-12-16T15:57:02.858Z,53.90
2022-12-16T16:00:17.900Z,55.20
2022-12-16T16:03:38.982Z,55.80
2022-12-16T16:06:45.483Z,56.20
2022-12-16T16:09:50.995Z,56.80
2022-12-16T16:12:54.958Z,57.40
2022-12-16T16:15:59.025Z,58.10
2022-12-16T16:19:02.923Z,58.60
2022-12-16T16:22:07.755Z,59.00
2022-12-16T16:25:11.648Z,59.70
2022-12-16T16:28:15.535Z,60.10
2022-12-16T16:31:22.052Z,61.00
2022-12-16T16:34:26.610Z,61.80
2022-12-16T16:37:36.485Z,62.40
2022-12-16T16:40:51.178Z,63.00
2022-12-16T16:43:55.157Z,63.60
2022-12-16T16:47:01.015Z,64.20
2022-12-16T16:50:06.398Z,64.70
2022-12-16T16:53:10.260Z,65.40
2022-12-16T16:56:19.864Z,66.00
2022-12-16T16:59:24.577Z,66.30
2022-12-16T17:02:41.136Z,66.70
2022-12-16T17:05:45.105Z,67.30
2022-12-16T17:08:49.218Z,67.60
2022-12-16T17:11:53.517Z,68.20
2022-12-16T17:15:17.251Z,68.50
2022-12-16T17:18:21.469Z,68.90
2022-12-16T17:21:25.775Z,69.40
2022-12-16T17:24:29.681Z,70.00
2022-12-16T17:27:34.903Z,70.10
2022-12-16T17:30:46.859Z,69.80
2022-12-16T17:33:56.474Z,70.30
2022-12-16T17:37:00.418Z,70.50
2022-12-16T17:40:04.160Z,70.70
2022-12-16T17:43:10.395Z,70.90
2022-12-16T17:46:19.950Z,71.50
2022-12-16T17:49:28.672Z,71.70
2022-12-16T17:52:32.764Z,72.30
2022-12-16T17:55:36.959Z,72.40
2022-12-16T17:58:49.264Z,72.70
2022-12-16T18:01:53.032Z,72.90
2022-12-16T18:04:56.761Z,73.40
2022-12-16T18:08:08.265Z,73.40
2022-12-16T18:11:14.856Z,73.20
2022-12-16T18:14:18.700Z,73.60
2022-12-16T18:17:22.474Z,73.80
2022-12-16T18:20:26.564Z,73.70
2022-12-16T18:23:32.721Z,73.90
2022-12-16T18:26:36.917Z,73.90
2022-12-16T18:29:40.705Z,73.90
2022-12-16T18:32:49.903Z,74.30
2022-12-16T18:35:53.867Z,74.60
2022-12-16T18:38:57.863Z,75.70
2022-12-16T18:42:04.410Z,76.00
2022-12-16T18:45:11.363Z,76.00
2022-12-16T18:48:18.161Z,76.50
2022-12-16T18:51:21.850Z,76.60
2022-12-16T18:54:25.823Z,76.40
2022-12-16T18:57:39.466Z,76.90
2022-12-16T19:00:43.732Z,76.80
2022-12-16T19:03:47.707Z,77.00
2022-12-16T19:06:51.623Z,77.20
2022-12-16T19:10:15.926Z,77.20
2022-12-16T19:13:22.847Z,77.50
2022-12-16T19:16:24.576Z,77.80
2022-12-16T19:19:28.682Z,77.80
2022-12-16T19:22:32.520Z,78.20
2022-12-16T19:25:37.935Z,78.10
2022-12-16T19:28:42.588Z,78.00
2022-12-16T19:31:50.158Z,77.90
2022-12-16T19:34:57.245Z,78.40
2022-12-16T19:38:01.001Z,78.90
2022-12-16T19:41:12.234Z,78.80
2022-12-16T19:44:16.379Z,79.00
2022-12-16T19:47:20.320Z,79.00
2022-12-16T19:50:24.764Z,79.20
2022-12-16T19:53:28.622Z,79.70
2022-12-16T19:56:32.217Z,79.80
2022-12-16T19:59:37.834Z,79.80
2022-12-16T20:02:41.936Z,79.70
2022-12-16T20:05:46.363Z,79.60
2022-12-16T20:08:53.194Z,79.80
2022-12-16T20:11:59.854Z,80.00
2022-12-16T20:15:03.768Z,80.50
2022-12-16T20:18:07.828Z,80.10
2022-12-16T20:24:40.599Z,80.50
2022-12-16T20:27:44.306Z,80.80
2022-12-16T20:30:48.509Z,80.50
2022-12-16T20:33:54.384Z,80.20
2022-12-16T20:37:04.703Z,80.50
2022-12-16T20:40:08.832Z,80.60
2022-12-16T20:43:13.675Z,80.40
2022-12-16T20:46:17.362Z,81.10
2022-12-16T20:49:21.417Z,81.10
2022-12-16T20:52:25.140Z,81.10
2022-12-16T20:55:29.281Z,81.40
2022-12-16T20:58:38.155Z,81.60
2022-12-16T21:02:01.329Z,82.00
2022-12-16T21:05:05.957Z,82.30
2022-12-16T21:08:12.422Z,81.70
2022-12-16T21:11:16.803Z,81.70
2022-12-16T21:14:20.624Z,81.70
2022-12-16T21:17:24.406Z,81.70
2022-12-16T21:20:28.997Z,81.90
2022-12-16T21:23:35.220Z,80.60
2022-12-16T21:26:39.173Z,80.50
2022-12-16T21:29:45.326Z,80.70
2022-12-16T21:32:49.413Z,80.80
2022-12-16T21:35:52.980Z,80.90
2022-12-16T21:38:59.946Z,81.20
2022-12-16T21:42:03.762Z,81.80
2022-12-16T21:45:07.510Z,82.60
2022-12-16T21:48:12.349Z,82.10
2022-12-16T21:51:16.375Z,82.30
2022-12-16T21:54:20.644Z,82.60
2022-12-16T21:57:24.469Z,82.90
2022-12-16T22:00:29.109Z,83.00
2022-12-16T22:03:32.980Z,83.20
2022-12-16T22:06:37.141Z,83.40
2022-12-16T22:09:41.496Z,83.20
2022-12-16T22:12:45.274Z,83.70
2022-12-16T22:15:52.308Z,84.20
2022-12-16T22:19:00.563Z,84.20
2022-12-16T22:22:06.603Z,84.60
2022-12-16T22:25:14.540Z,85.00
2022-12-16T22:28:18.735Z,85.60
2022-12-16T22:31:23.113Z,86.20
2022-12-16T22:34:26.786Z,86.80
2022-12-16T22:37:30.793Z,87.00
2022-12-16T22:40:36.128Z,87.70
2022-12-16T22:43:51.089Z,87.60
2022-12-16T22:46:56.269Z,88.10
2022-12-16T22:50:00.203Z,88.20
2022-12-16T22:53:03.843Z,88.20
2022-12-16T22:56:11.731Z,88.30
2022-12-16T22:59:15.471Z,88.40
2022-12-16T23:02:25.834Z,88.70
2022-12-16T23:05:29.742Z,88.80
2022-12-16T23:08:40.025Z,88.90
2022-12-16T23:11:51.706Z,88.90
2022-12-16T23:14:55.777Z,89.00
2022-12-16T23:18:00.736Z,89.00
2022-12-16T23:21:09.858Z,89.00
2022-12-16T23:24:24.639Z,89.10
2022-12-16T23:27:28.990Z,89.40
2022-12-16T23:30:32.998Z,89.50
2022-12-16T23:33:42.870Z,89.50
2022-12-16T23:36:47.337Z,89.50
2022-12-16T23:40:07.860Z,89.50
2022-12-16T23:43:13.845Z,89.50
2022-12-16T23:46:17.740Z,89.60
2022-12-16T23:49:26.125Z,89.60
2022-12-16T23:52:30.173Z,89.90
2022-12-16T23:55:34.186Z,89.80
2022-12-16T23:58:38.093Z,89.90
